Time;durP1;ratioP1;P1;durP2;ratioP2;P2;SDS_P1;SDS_P2;PMS_P1;PMS_P2;Temp;Humidity;BMP_temperature;BMP_pressure;BME280_temperature;BME280_humidity;BME280_pressure;Samples;Min_cycle;Max_cycle;Signal;HPM_P1;HPM_P2
2023/01/04 00:00:28;;;;;;;3.83;2.20;;;;;;;;;;5010892;28;20452;-63
2023/01/04 00:02:54;;;;;;;5.10;2.00;;;;;;;;;;5011033;28;20656;-62
2023/01/04 00:05:20;;;;;;;3.77;2.20;;;;;;;;;;5011126;28;20483;-62
2023/01/04 00:07:46;;;;;;;4.40;2.47;;;;;;;;;;5010952;28;20194;-62
2023/01/04 00:10:12;;;;;;;3.73;1.77;;;;;;;;;;5011125;28;20205;-62
2023/01/04 00:12:38;;;;;;;4.20;1.80;;;;;;;;;;5010754;28;20201;-62
2023/01/04 00:15:04;;;;;;;4.30;2.00;;;;;;;;;;5011176;28;20664;-62
2023/01/04 00:17:32;;;;;;;4.73;2.17;;;;;;;;;;5011198;28;20524;-62
2023/01/04 00:19:58;;;;;;;6.63;2.10;;;;;;;;;;5011070;28;20451;-62
2023/01/04 00:22:24;;;;;;;4.33;1.90;;;;;;;;;;5011008;28;20440;-62
2023/01/04 00:24:50;;;;;;;4.47;2.07;;;;;;;;;;5010728;28;20706;-62
2023/01/04 00:27:16;;;;;;;4.70;2.17;;;;;;;;;;5011124;28;20213;-62
2023/01/04 00:29:42;;;;;;;3.57;2.13;;;;;;;;;;5012063;28;20263;-62
2023/01/04 00:32:07;;;;;;;4.67;2.17;;;;;;;;;;5014508;28;20300;-62
2023/01/04 00:34:35;;;;;;;5.57;2.00;;;;;;;;;;5014267;28;20268;-63
2023/01/04 00:37:01;;;;;;;3.63;1.70;;;;;;;;;;5014270;28;20205;-63
2023/01/04 00:39:28;;;;;;;4.70;2.13;;;;;;;;;;5014605;28;20446;-62
2023/01/04 00:42:03;;;;;;;4.13;1.93;;;;;;;;;;5014134;28;20472;-62
2023/01/04 00:44:30;;;;;;;5.03;2.00;;;;;;;;;;5014205;28;20441;-62
2023/01/04 00:46:56;;;;;;;3.97;1.90;;;;;;;;;;5014192;28;20791;-62
2023/01/04 00:49:22;;;;;;;6.93;1.93;;;;;;;;;;5013998;28;21009;-61
2023/01/04 00:51:50;;;;;;;8.63;2.00;;;;;;;;;;5013764;28;20688;-61
2023/01/04 00:54:16;;;;;;;4.37;1.73;;;;;;;;;;5014167;28;20437;-60
2023/01/04 00:56:42;;;;;;;3.33;1.90;;;;;;;;;;5013978;28;20805;-62
2023/01/04 00:59:09;;;;;;;6.03;1.97;;;;;;;;;;5014086;28;20205;-62
2023/01/04 01:01:35;;;;;;;3.27;2.33;;;;;;;;;;5013634;28;20444;-63
2023/01/04 01:04:03;;;;;;;4.13;2.17;;;;;;;;;;5013823;28;20447;-62
2023/01/04 01:06:30;;;;;;;3.77;2.00;;;;;;;;;;5013782;28;20228;-63
2023/01/04 01:08:57;;;;;;;3.73;1.50;;;;;;;;;;5013777;28;20431;-62
2023/01/04 01:11:23;;;;;;;2.23;1.50;;;;;;;;;;5013735;28;20244;-63
2023/01/04 01:13:50;;;;;;;4.13;2.10;;;;;;;;;;5009907;28;20483;-60
2023/01/04 01:16:17;;;;;;;3.07;1.90;;;;;;;;;;5013836;28;20461;-60
2023/01/04 01:18:43;;;;;;;3.57;1.70;;;;;;;;;;5013333;28;20923;-61
2023/01/04 01:21:10;;;;;;;3.17;1.60;;;;;;;;;;5013423;28;20437;-58
2023/01/04 01:23:37;;;;;;;5.47;1.70;;;;;;;;;;5010646;28;20495;-59
2023/01/04 01:26:05;;;;;;;2.23;1.70;;;;;;;;;;5013507;28;20586;-58
2023/01/04 01:28:31;;;;;;;3.67;1.57;;;;;;;;;;5013529;28;20479;-58
2023/01/04 01:30:58;;;;;;;5.17;1.70;;;;;;;;;;5013472;28;20476;-58
2023/01/04 01:33:24;;;;;;;4.23;1.77;;;;;;;;;;5013466;28;20212;-58
2023/01/04 01:35:50;;;;;;;3.17;1.60;;;;;;;;;;5013355;28;20213;-58
2023/01/04 01:38:16;;;;;;;4.33;1.70;;;;;;;;;;5013355;28;20486;-58
2023/01/04 01:40:42;;;;;;;4.77;1.80;;;;;;;;;;5012825;28;20272;-57
2023/01/04 01:43:15;;;;;;;3.77;1.70;;;;;;;;;;5013156;28;20625;-58
2023/01/04 01:45:41;;;;;;;3.13;1.50;;;;;;;;;;5013135;28;21056;-59
2023/01/04 01:48:10;;;;;;;2.90;1.40;;;;;;;;;;5013245;28;20546;-60
2023/01/04 01:50:39;;;;;;;4.97;1.77;;;;;;;;;;5013072;28;20201;-60
2023/01/04 01:53:06;;;;;;;4.23;1.67;;;;;;;;;;5013259;28;20193;-60
2023/01/04 01:55:33;;;;;;;5.37;1.80;;;;;;;;;;5012977;28;20193;-61
2023/01/04 01:57:59;;;;;;;3.83;1.50;;;;;;;;;;5013161;28;20200;-60
2023/01/04 02:00:27;;;;;;;3.00;1.70;;;;;;;;;;5012834;28;20202;-60
2023/01/04 02:02:57;;;;;;;2.73;1.47;;;;;;;;;;5012826;28;20687;-58
2023/01/04 02:05:24;;;;;;;1.87;1.33;;;;;;;;;;5013189;28;20526;-60
2023/01/04 02:07:50;;;;;;;1.80;1.50;;;;;;;;;;5012864;28;20425;-61
2023/01/04 02:10:16;;;;;;;4.00;1.67;;;;;;;;;;5012763;28;20216;-59
2023/01/04 02:12:43;;;;;;;4.23;1.77;;;;;;;;;;5012752;28;20202;-59
2023/01/04 02:15:10;;;;;;;4.53;1.93;;;;;;;;;;5012712;28;20468;-60
2023/01/04 02:17:41;;;;;;;4.37;1.80;;;;;;;;;;5012753;28;20193;-60
2023/01/04 02:20:28;;;;;;;6.63;1.90;;;;;;;;;;5012675;28;20217;-60
2023/01/04 02:23:08;;;;;;;3.20;1.30;;;;;;;;;;4979543;28;20263;-59
2023/01/04 02:25:44;;;;;;;4.50;1.70;;;;;;;;;;5012525;28;20225;-59
2023/01/04 02:28:16;;;;;;;4.57;1.90;;;;;;;;;;5012521;28;20275;-59
2023/01/04 02:30:58;;;;;;;3.10;1.53;;;;;;;;;;5012395;28;20202;-60
2023/01/04 02:33:33;;;;;;;2.57;2.00;;;;;;;;;;5012664;28;20206;-59
2023/01/04 02:36:05;;;;;;;2.17;1.60;;;;;;;;;;5012285;28;20270;-59
2023/01/04 02:38:35;;;;;;;2.57;1.53;;;;;;;;;;5012469;28;20198;-61
2023/01/04 02:41:04;;;;;;;2.03;1.50;;;;;;;;;;5012309;28;20252;-60
2023/01/04 02:46:21;;;;;;;3.07;1.63;;;;;;;;;;5012062;28;20368;-59
2023/01/04 02:51:34;;;;;;;3.07;1.57;;;;;;;;;;5012267;28;20336;-58
2023/01/04 02:54:02;;;;;;;4.03;1.70;;;;;;;;;;5011938;28;20221;-59
2023/01/04 02:56:37;;;;;;;4.53;1.87;;;;;;;;;;5011882;28;20574;-59
2023/01/04 02:59:13;;;;;;;5.70;2.00;;;;;;;;;;5012099;28;20205;-60
2023/01/04 03:07:25;;;;;;;4.80;2.43;;;;;;;;;;5012117;28;20201;-60
2023/01/04 03:09:53;;;;;;;3.00;1.73;;;;;;;;;;5011662;28;20203;-63
2023/01/04 03:12:33;;;;;;;2.70;1.80;;;;;;;;;;5011764;28;20198;-61
2023/01/04 03:15:01;;;;;;;2.70;1.70;;;;;;;;;;5012037;28;20193;-58
2023/01/04 03:17:31;;;;;;;4.07;1.70;;;;;;;;;;5011782;28;21056;-58
2023/01/04 03:19:59;;;;;;;3.90;1.90;;;;;;;;;;5011498;28;20213;-58
2023/01/04 03:36:27;;;;;;;2.93;1.90;;;;;;;;;;5011659;28;20424;-57
2023/01/04 03:50:05;;;;;;;4.37;2.10;;;;;;;;;;5011686;28;20259;-58
2023/01/04 03:52:33;;;;;;;3.30;1.60;;;;;;;;;;5011256;28;20483;-59
2023/01/04 03:55:00;;;;;;;5.03;2.00;;;;;;;;;;5011255;28;20204;-59
2023/01/04 03:57:26;;;;;;;3.93;1.93;;;;;;;;;;5011438;28;20436;-58
2023/01/04 03:59:53;;;;;;;5.57;2.17;;;;;;;;;;5011190;28;20458;-59
2023/01/04 04:02:23;;;;;;;2.47;1.80;;;;;;;;;;5011301;28;20815;-58
2023/01/04 04:10:19;;;;;;;3.10;1.63;;;;;;;;;;5015251;28;20470;-59
2023/01/04 04:12:48;;;;;;;3.37;1.97;;;;;;;;;;5014899;28;20202;-57
2023/01/04 04:15:15;;;;;;;5.20;2.27;;;;;;;;;;5015026;28;20198;-57
2023/01/04 04:17:40;;;;;;;4.10;1.93;;;;;;;;;;5014869;28;20618;-58
2023/01/04 04:20:07;;;;;;;4.23;1.90;;;;;;;;;;5014967;28;20212;-59
2023/01/04 04:22:33;;;;;;;4.90;2.00;;;;;;;;;;5014752;28;20197;-58
2023/01/04 04:25:07;;;;;;;3.13;2.17;;;;;;;;;;5014963;28;20202;-58
2023/01/04 04:27:33;;;;;;;2.70;1.97;;;;;;;;;;5014791;28;20260;-58
2023/01/04 04:29:59;;;;;;;3.73;1.90;;;;;;;;;;5014467;28;20444;-60
2023/01/04 04:32:26;;;;;;;2.80;1.80;;;;;;;;;;5014613;28;20736;-58
2023/01/04 04:34:52;;;;;;;3.27;1.90;;;;;;;;;;5014266;28;20280;-58
2023/01/04 04:37:18;;;;;;;5.83;2.20;;;;;;;;;;5014466;28;20228;-58
2023/01/04 04:39:44;;;;;;;3.50;2.00;;;;;;;;;;5014303;28;20229;-58
2023/01/04 04:42:11;;;;;;;2.53;1.83;;;;;;;;;;5014445;28;20197;-58
2023/01/04 04:44:37;;;;;;;6.17;2.10;;;;;;;;;;5014334;28;20209;-58
2023/01/04 04:47:03;;;;;;;4.43;1.90;;;;;;;;;;5014256;28;20233;-58
2023/01/04 04:49:29;;;;;;;4.43;1.80;;;;;;;;;;5014112;28;20668;-57
2023/01/04 04:51:55;;;;;;;3.57;1.77;;;;;;;;;;5014154;28;20224;-57
2023/01/04 04:54:21;;;;;;;2.97;2.20;;;;;;;;;;5014387;28;20603;-57
2023/01/04 04:56:48;;;;;;;3.20;1.87;;;;;;;;;;5014324;28;20240;-57
2023/01/04 04:59:15;;;;;;;4.00;2.00;;;;;;;;;;5014350;28;20285;-57
2023/01/04 05:01:41;;;;;;;5.87;1.93;;;;;;;;;;5014114;28;20293;-57
2023/01/04 05:04:07;;;;;;;3.80;1.90;;;;;;;;;;5014316;28;20612;-57
2023/01/04 05:06:33;;;;;;;4.97;2.10;;;;;;;;;;5013862;28;20229;-58
2023/01/04 05:09:00;;;;;;;4.00;2.00;;;;;;;;;;5013959;28;20660;-57
2023/01/04 05:14:10;;;;;;;4.13;2.30;;;;;;;;;;5013952;28;20677;-55
2023/01/04 05:16:38;;;;;;;4.83;1.73;;;;;;;;;;5012882;28;20228;-56
2023/01/04 05:19:04;;;;;;;4.10;1.77;;;;;;;;;;5013777;28;20202;-56
2023/01/04 05:21:30;;;;;;;5.43;1.93;;;;;;;;;;5013702;28;20648;-55
2023/01/04 05:23:56;;;;;;;3.83;2.50;;;;;;;;;;5013718;28;20292;-56
2023/01/04 05:26:21;;;;;;;3.57;1.93;;;;;;;;;;5013569;28;20229;-57
2023/01/04 05:28:47;;;;;;;3.10;2.07;;;;;;;;;;5013721;28;20635;-56
2023/01/04 05:31:13;;;;;;;3.17;1.90;;;;;;;;;;5013845;28;20197;-57
2023/01/04 05:33:41;;;;;;;4.23;2.07;;;;;;;;;;5013648;28;20282;-58
2023/01/04 05:36:07;;;;;;;2.47;2.00;;;;;;;;;;5013477;28;20194;-58
2023/01/04 05:38:33;;;;;;;4.33;2.47;;;;;;;;;;5013462;28;20288;-58
2023/01/04 05:41:00;;;;;;;3.43;1.97;;;;;;;;;;5013407;28;20299;-58
2023/01/04 05:43:26;;;;;;;2.97;1.80;;;;;;;;;;5013244;28;20204;-59
2023/01/04 05:45:53;;;;;;;2.00;1.40;;;;;;;;;;5013065;28;20218;-57
2023/01/04 05:48:19;;;;;;;3.40;1.80;;;;;;;;;;5013381;28;20276;-59
2023/01/04 05:50:47;;;;;;;3.53;2.07;;;;;;;;;;5012902;28;20646;-59
2023/01/04 05:53:13;;;;;;;2.77;1.70;;;;;;;;;;5013136;28;20201;-60
2023/01/04 05:55:39;;;;;;;2.37;1.60;;;;;;;;;;5013209;28;20182;-59
2023/01/04 05:58:05;;;;;;;3.33;1.70;;;;;;;;;;5012938;28;20201;-60
2023/01/04 06:00:31;;;;;;;6.60;1.77;;;;;;;;;;5013022;28;20197;-59
2023/01/04 06:02:57;;;;;;;2.33;1.83;;;;;;;;;;5012734;28;20259;-58
2023/01/04 06:05:23;;;;;;;3.07;2.07;;;;;;;;;;5012765;28;20221;-57
2023/01/04 06:07:51;;;;;;;3.97;1.80;;;;;;;;;;5012918;28;20212;-58
2023/01/04 06:10:17;;;;;;;3.03;2.10;;;;;;;;;;5013012;28;20292;-58
2023/01/04 06:12:43;;;;;;;2.87;1.50;;;;;;;;;;5012904;28;20224;-58
2023/01/04 06:15:12;;;;;;;4.50;2.40;;;;;;;;;;5012730;28;20233;-58
2023/01/04 06:17:39;;;;;;;3.50;2.33;;;;;;;;;;5012418;28;20193;-58
2023/01/04 06:20:07;;;;;;;2.20;2.00;;;;;;;;;;5012583;28;20200;-58
2023/01/04 06:22:33;;;;;;;3.60;2.40;;;;;;;;;;5012711;28;20200;-59
2023/01/04 06:25:01;;;;;;;2.10;1.90;;;;;;;;;;5012237;28;20201;-59
2023/01/04 06:27:27;;;;;;;1.97;1.47;;;;;;;;;;5012294;28;20197;-59
2023/01/04 06:29:53;;;;;;;4.10;1.80;;;;;;;;;;5012279;28;20652;-59
2023/01/04 06:32:19;;;;;;;2.80;1.80;;;;;;;;;;5012490;28;20247;-59
2023/01/04 06:34:45;;;;;;;3.17;1.73;;;;;;;;;;5012175;28;20225;-59
2023/01/04 06:37:11;;;;;;;2.53;1.60;;;;;;;;;;5012180;28;20208;-59
2023/01/04 06:39:37;;;;;;;2.10;1.90;;;;;;;;;;5012099;28;20634;-59
2023/01/04 06:42:05;;;;;;;3.27;1.90;;;;;;;;;;5012140;28;20664;-59
2023/01/04 06:44:31;;;;;;;2.53;1.60;;;;;;;;;;5012230;28;20623;-59
2023/01/04 06:46:57;;;;;;;2.63;1.77;;;;;;;;;;5012350;28;20225;-59
2023/01/04 06:49:23;;;;;;;1.80;1.70;;;;;;;;;;5012082;28;20205;-59
2023/01/04 06:51:49;;;;;;;1.70;1.60;;;;;;;;;;5011837;28;20296;-61
2023/01/04 06:54:15;;;;;;;3.10;2.30;;;;;;;;;;5012202;28;20205;-61
2023/01/04 06:56:41;;;;;;;2.50;2.30;;;;;;;;;;5011834;28;20531;-60
2023/01/04 06:59:08;;;;;;;3.13;2.10;;;;;;;;;;5012177;28;20198;-59
2023/01/04 07:01:34;;;;;;;2.00;1.90;;;;;;;;;;5011945;28;20316;-58
2023/01/04 07:04:00;;;;;;;2.10;2.00;;;;;;;;;;5011847;28;20212;-59
2023/01/04 07:06:26;;;;;;;2.30;2.10;;;;;;;;;;5011977;28;20320;-59
2023/01/04 07:08:52;;;;;;;2.13;1.93;;;;;;;;;;5012044;28;20682;-60
2023/01/04 07:11:18;;;;;;;3.03;2.20;;;;;;;;;;5012100;28;20197;-61
2023/01/04 07:13:44;;;;;;;2.73;2.30;;;;;;;;;;5011659;28;20259;-60
2023/01/04 07:16:12;;;;;;;2.50;2.10;;;;;;;;;;5011641;28;20224;-60
2023/01/04 07:18:38;;;;;;;3.80;2.30;;;;;;;;;;5011542;28;20217;-60
2023/01/04 07:21:04;;;;;;;3.07;2.50;;;;;;;;;;5011336;28;20221;-61
2023/01/04 07:23:30;;;;;;;3.03;2.60;;;;;;;;;;5011805;28;20197;-60
2023/01/04 07:26:00;;;;;;;2.70;2.50;;;;;;;;;;5011331;28;20227;-60
2023/01/04 07:31:12;;;;;;;2.50;2.30;;;;;;;;;;5011843;28;20204;-61
2023/01/04 07:33:38;;;;;;;2.40;2.20;;;;;;;;;;5011451;28;20197;-61
2023/01/04 07:36:04;;;;;;;3.20;2.40;;;;;;;;;;5003989;28;20715;-60
2023/01/04 07:38:31;;;;;;;3.27;2.60;;;;;;;;;;4992034;28;20194;-61
2023/01/04 07:40:57;;;;;;;2.60;2.40;;;;;;;;;;4995185;28;20269;-61
2023/01/04 07:43:23;;;;;;;4.03;3.73;;;;;;;;;;4996108;28;20202;-61
2023/01/04 07:45:49;;;;;;;3.27;3.00;;;;;;;;;;4995773;28;20225;-61
2023/01/04 07:48:16;;;;;;;3.23;3.03;;;;;;;;;;4995886;28;20202;-61
2023/01/04 07:50:43;;;;;;;3.20;2.90;;;;;;;;;;4995888;28;20217;-62
2023/01/04 07:53:11;;;;;;;3.70;3.40;;;;;;;;;;4995794;28;20293;-61
2023/01/04 07:55:37;;;;;;;3.93;2.83;;;;;;;;;;4995828;28;20197;-61
2023/01/04 07:58:03;;;;;;;5.23;4.23;;;;;;;;;;4996009;28;20191;-61
2023/01/04 08:00:29;;;;;;;3.80;3.50;;;;;;;;;;4995544;28;20847;-61
2023/01/04 08:02:55;;;;;;;5.90;4.63;;;;;;;;;;4995728;28;20205;-61
2023/01/04 08:05:23;;;;;;;3.53;3.23;;;;;;;;;;4995528;28;20577;-61
2023/01/04 08:07:49;;;;;;;3.53;3.23;;;;;;;;;;4995453;28;20206;-61
2023/01/04 08:10:16;;;;;;;4.50;4.10;;;;;;;;;;4995584;28;20272;-60
2023/01/04 08:12:41;;;;;;;4.00;3.40;;;;;;;;;;4995348;28;20658;-61
2023/01/04 08:15:08;;;;;;;3.80;3.03;;;;;;;;;;4995448;28;20205;-61
2023/01/04 08:17:34;;;;;;;3.00;2.80;;;;;;;;;;4995388;28;20245;-61
2023/01/04 08:20:00;;;;;;;3.63;3.33;;;;;;;;;;4995142;28;20542;-59
2023/01/04 08:22:27;;;;;;;3.73;3.43;;;;;;;;;;4995373;28;20225;-59
2023/01/04 08:24:53;;;;;;;4.37;3.97;;;;;;;;;;4995116;28;20198;-58
2023/01/04 08:27:19;;;;;;;3.67;3.37;;;;;;;;;;4995501;28;20236;-59
2023/01/04 08:29:45;;;;;;;4.10;3.70;;;;;;;;;;4994989;28;20692;-58
2023/01/04 08:32:11;;;;;;;4.37;3.80;;;;;;;;;;4995250;28;20410;-58
2023/01/04 08:34:37;;;;;;;4.07;3.67;;;;;;;;;;4995019;28;20322;-58
2023/01/04 08:37:03;;;;;;;3.70;3.40;;;;;;;;;;4995162;28;20198;-58
2023/01/04 08:39:34;;;;;;;4.27;3.17;;;;;;;;;;4995201;28;20281;-59
2023/01/04 08:42:00;;;;;;;3.70;3.30;;;;;;;;;;4994785;28;20694;-58
2023/01/04 08:44:26;;;;;;;4.70;2.90;;;;;;;;;;4994848;28;20226;-59
2023/01/04 08:46:53;;;;;;;3.00;2.80;;;;;;;;;;4994618;28;20234;-59
2023/01/04 08:49:19;;;;;;;2.97;2.27;;;;;;;;;;4994849;28;20203;-57
2023/01/04 08:51:46;;;;;;;2.70;2.50;;;;;;;;;;4994413;28;20297;-58
2023/01/04 08:54:12;;;;;;;2.53;2.33;;;;;;;;;;4995025;28;20261;-58
2023/01/04 08:56:40;;;;;;;1.90;1.80;;;;;;;;;;4994569;28;20732;-55
2023/01/04 08:59:07;;;;;;;2.67;2.10;;;;;;;;;;4994387;28;20207;-65
2023/01/04 09:01:33;;;;;;;3.00;2.00;;;;;;;;;;4994734;28;20282;-65
2023/01/04 09:03:59;;;;;;;2.47;2.20;;;;;;;;;;4994301;28;20614;-64
2023/01/04 09:06:25;;;;;;;2.23;2.00;;;;;;;;;;4994498;28;20237;-64
2023/01/04 09:08:51;;;;;;;1.80;1.70;;;;;;;;;;4994304;28;20260;-64
2023/01/04 09:11:18;;;;;;;2.20;2.07;;;;;;;;;;4994254;28;20210;-64
2023/01/04 09:13:45;;;;;;;2.03;1.93;;;;;;;;;;4994249;28;20197;-65
2023/01/04 09:16:12;;;;;;;1.93;1.83;;;;;;;;;;4994416;28;20682;-65
2023/01/04 09:18:38;;;;;;;2.70;2.50;;;;;;;;;;4993985;28;20202;-65
2023/01/04 09:21:05;;;;;;;2.60;2.40;;;;;;;;;;4994299;28;20287;-65
2023/01/04 09:23:32;;;;;;;2.67;2.47;;;;;;;;;;4994168;28;20399;-66
2023/01/04 09:25:59;;;;;;;3.03;2.73;;;;;;;;;;4994070;28;20696;-66
2023/01/04 09:28:24;;;;;;;2.67;2.47;;;;;;;;;;4994172;28;20657;-65
2023/01/04 09:30:52;;;;;;;4.43;2.80;;;;;;;;;;4994005;28;20209;-64
2023/01/04 09:33:18;;;;;;;3.40;3.10;;;;;;;;;;4994165;28;20249;-65
2023/01/04 09:35:44;;;;;;;4.33;3.40;;;;;;;;;;4993744;28;20705;-67
2023/01/04 09:38:10;;;;;;;3.77;3.47;;;;;;;;;;4993808;28;20198;-64
2023/01/04 09:40:42;;;;;;;4.00;3.70;;;;;;;;;;4993621;28;20238;-66
2023/01/04 09:43:15;;;;;;;4.07;3.77;;;;;;;;;;4993785;28;20229;-67
2023/01/04 09:45:41;;;;;;;4.37;3.83;;;;;;;;;;4993742;28;20269;-66
2023/01/04 09:48:11;;;;;;;4.60;4.20;;;;;;;;;;4993600;28;20636;-66
2023/01/04 09:50:50;;;;;;;5.10;4.70;;;;;;;;;;4993633;28;20665;-66
2023/01/04 09:53:20;;;;;;;5.10;4.70;;;;;;;;;;4993561;28;20202;-65
2023/01/04 09:55:49;;;;;;;4.93;4.50;;;;;;;;;;4993407;28;20539;-65
2023/01/04 09:58:20;;;;;;;4.67;4.33;;;;;;;;;;4993649;28;20211;-65
2023/01/04 10:00:48;;;;;;;4.47;4.10;;;;;;;;;;4993457;28;20676;-67
2023/01/04 10:03:18;;;;;;;4.60;4.20;;;;;;;;;;4992890;28;20272;-64
2023/01/04 10:05:44;;;;;;;4.20;3.90;;;;;;;;;;4993226;28;20228;-65
2023/01/04 10:08:14;;;;;;;4.40;4.10;;;;;;;;;;4993375;28;20289;-65
2023/01/04 10:10:47;;;;;;;4.67;4.20;;;;;;;;;;4993354;28;20194;-61
2023/01/04 10:13:18;;;;;;;3.87;3.57;;;;;;;;;;4993349;28;20225;-62
2023/01/04 10:15:49;;;;;;;3.70;3.40;;;;;;;;;;4993299;28;20202;-59
2023/01/04 10:18:21;;;;;;;3.50;3.20;;;;;;;;;;4993206;28;20194;-61
2023/01/04 10:21:00;;;;;;;3.20;3.00;;;;;;;;;;4993301;28;20210;-62
2023/01/04 10:23:34;;;;;;;2.90;2.70;;;;;;;;;;4993327;28;20206;-66
2023/01/04 10:26:04;;;;;;;2.93;2.73;;;;;;;;;;4993232;28;20230;-65
2023/01/04 10:28:36;;;;;;;2.77;2.57;;;;;;;;;;4993155;28;20296;-64
2023/01/04 10:31:05;;;;;;;3.80;3.07;;;;;;;;;;4992954;28;20302;-65
2023/01/04 10:33:38;;;;;;;5.50;2.77;;;;;;;;;;4992846;28;20624;-64
2023/01/04 10:36:12;;;;;;;2.60;2.40;;;;;;;;;;4992812;28;20229;-64
2023/01/04 10:39:15;;;;;;;2.37;2.17;;;;;;;;;;4993057;28;20205;-64
2023/01/04 10:41:36;;;;;;;2.10;2.00;;;;;;;;;;4988753;28;20230;-66
2023/01/04 10:44:07;;;;;;;2.30;2.10;;;;;;;;;;4992344;28;20253;-64
2023/01/04 10:46:39;;;;;;;2.70;1.90;;;;;;;;;;4992252;28;20225;-64
2023/01/04 10:49:09;;;;;;;2.10;2.00;;;;;;;;;;4992282;28;20210;-65
2023/01/04 10:51:38;;;;;;;2.00;1.90;;;;;;;;;;4992428;28;20684;-64
2023/01/04 10:54:08;;;;;;;2.17;2.03;;;;;;;;;;4992284;28;20740;-63
2023/01/04 10:56:38;;;;;;;2.90;2.70;;;;;;;;;;4992460;28;20212;-65
2023/01/04 10:59:08;;;;;;;2.60;2.40;;;;;;;;;;4992026;28;20264;-64
2023/01/04 11:01:37;;;;;;;2.33;2.13;;;;;;;;;;4991980;28;20278;-63
2023/01/04 11:04:05;;;;;;;2.50;2.00;;;;;;;;;;4991770;28;20210;-65
2023/01/04 11:06:34;;;;;;;2.40;2.20;;;;;;;;;;4992055;28;20252;-66
2023/01/04 11:09:01;;;;;;;2.40;2.20;;;;;;;;;;4992031;28;20293;-64
2023/01/04 11:11:30;;;;;;;2.50;2.30;;;;;;;;;;4991819;28;20277;-63
2023/01/04 11:13:56;;;;;;;2.00;1.90;;;;;;;;;;4991022;28;20202;-64
2023/01/04 11:16:22;;;;;;;2.20;2.10;;;;;;;;;;4991900;28;20187;-64
2023/01/04 11:18:48;;;;;;;1.90;1.80;;;;;;;;;;4991818;28;20606;-65
2023/01/04 11:21:15;;;;;;;1.83;1.73;;;;;;;;;;4992186;28;20202;-65
2023/01/04 11:23:42;;;;;;;2.20;2.10;;;;;;;;;;4991817;28;20629;-65
2023/01/04 11:26:09;;;;;;;2.07;1.97;;;;;;;;;;4992213;28;20210;-64
2023/01/04 11:28:36;;;;;;;2.00;1.90;;;;;;;;;;4992470;28;20202;-63
2023/01/04 11:31:05;;;;;;;1.90;1.80;;;;;;;;;;4992125;28;20261;-64
2023/01/04 11:33:31;;;;;;;1.73;1.63;;;;;;;;;;4992120;28;20198;-64
2023/01/04 11:35:58;;;;;;;3.70;1.97;;;;;;;;;;4992181;28;20712;-63
2023/01/04 11:38:26;;;;;;;2.00;1.90;;;;;;;;;;4992201;28;20209;-64
2023/01/04 11:40:58;;;;;;;1.90;1.80;;;;;;;;;;4991968;28;20238;-63
2023/01/04 11:43:24;;;;;;;2.27;2.07;;;;;;;;;;4992093;28;20221;-64
2023/01/04 11:46:08;;;;;;;2.03;1.90;;;;;;;;;;4991978;28;20236;-65
2023/01/04 11:48:36;;;;;;;1.70;1.60;;;;;;;;;;4991811;28;20233;-65
2023/01/04 11:51:02;;;;;;;2.17;1.60;;;;;;;;;;4992168;28;20264;-65
2023/01/04 11:53:30;;;;;;;2.20;2.00;;;;;;;;;;4992167;28;20301;-64
2023/01/04 11:56:14;;;;;;;1.80;1.70;;;;;;;;;;4991878;28;20198;-65
2023/01/04 11:58:41;;;;;;;1.70;1.60;;;;;;;;;;4992145;28;20202;-64
2023/01/04 12:01:18;;;;;;;2.83;1.90;;;;;;;;;;4991741;28;20236;-64
2023/01/04 12:03:44;;;;;;;1.93;1.83;;;;;;;;;;4991799;28;20664;-65
2023/01/04 12:06:13;;;;;;;2.00;1.90;;;;;;;;;;4991731;28;20324;-64
2023/01/04 12:08:41;;;;;;;1.70;1.60;;;;;;;;;;4991894;28;20203;-64
2023/01/04 12:11:14;;;;;;;3.83;2.00;;;;;;;;;;4991885;28;20209;-65
2023/01/04 12:13:41;;;;;;;2.00;1.90;;;;;;;;;;4991984;28;20202;-64
2023/01/04 12:16:13;;;;;;;1.90;1.80;;;;;;;;;;4991584;28;20203;-64
2023/01/04 12:18:41;;;;;;;2.10;2.00;;;;;;;;;;4991779;28;20253;-65
2023/01/04 12:21:13;;;;;;;2.10;2.00;;;;;;;;;;4991516;28;20739;-63
2023/01/04 12:23:39;;;;;;;2.40;2.30;;;;;;;;;;4991820;28;20202;-64
2023/01/04 12:26:07;;;;;;;2.47;2.27;;;;;;;;;;4993339;28;20214;-64
2023/01/04 12:28:34;;;;;;;2.70;2.50;;;;;;;;;;4995250;28;20203;-65
2023/01/04 12:31:19;;;;;;;2.87;2.67;;;;;;;;;;4995304;28;20186;-66
2023/01/04 12:33:47;;;;;;;2.77;2.57;;;;;;;;;;4995292;28;20205;-64
2023/01/04 12:36:14;;;;;;;3.40;3.13;;;;;;;;;;4995103;28;20252;-64
2023/01/04 12:38:58;;;;;;;3.33;3.03;;;;;;;;;;4995056;28;20756;-66
2023/01/04 12:41:25;;;;;;;3.40;3.20;;;;;;;;;;4995055;28;20275;-65
2023/01/04 12:43:52;;;;;;;3.23;3.03;;;;;;;;;;4994874;28;20207;-66
2023/01/04 12:49:37;;;;;;;4.00;3.60;;;;;;;;;;4995015;28;20210;-65
2023/01/04 12:52:21;;;;;;;4.20;3.90;;;;;;;;;;4994744;28;20194;-64
2023/01/04 12:54:50;;;;;;;4.23;3.93;;;;;;;;;;4994946;28;20193;-64
2023/01/04 12:57:23;;;;;;;4.07;3.70;;;;;;;;;;4994982;28;20198;-64
2023/01/04 12:59:54;;;;;;;4.27;3.97;;;;;;;;;;4994812;28;20245;-65
2023/01/04 13:02:21;;;;;;;4.30;4.00;;;;;;;;;;4995016;28;20206;-65
2023/01/04 13:04:47;;;;;;;4.80;4.30;;;;;;;;;;4994543;28;20627;-64
2023/01/04 13:07:16;;;;;;;4.83;4.53;;;;;;;;;;4994583;28;20222;-66
2023/01/04 13:09:45;;;;;;;4.63;4.23;;;;;;;;;;4994710;28;20563;-65
2023/01/04 13:12:20;;;;;;;4.30;4.00;;;;;;;;;;4994512;28;20194;-65
2023/01/04 13:14:46;;;;;;;3.93;3.63;;;;;;;;;;4994642;28;20193;-66
2023/01/04 13:17:14;;;;;;;4.10;3.70;;;;;;;;;;4994428;28;20202;-65
2023/01/04 13:19:42;;;;;;;3.60;3.30;;;;;;;;;;4994482;28;20198;-65
2023/01/04 13:22:17;;;;;;;3.83;3.53;;;;;;;;;;4994265;28;20210;-63
2023/01/04 13:24:43;;;;;;;3.73;3.40;;;;;;;;;;4994535;28;20229;-66
2023/01/04 13:27:14;;;;;;;4.53;4.17;;;;;;;;;;4994122;28;20265;-66
2023/01/04 13:29:41;;;;;;;4.20;3.90;;;;;;;;;;4994457;28;20205;-65
2023/01/04 13:32:10;;;;;;;4.73;4.30;;;;;;;;;;4994182;28;20205;-66
2023/01/04 13:34:37;;;;;;;5.03;4.63;;;;;;;;;;4994137;28;20301;-66
2023/01/04 13:37:08;;;;;;;4.60;4.20;;;;;;;;;;4993096;28;20233;-66
2023/01/04 13:39:34;;;;;;;5.30;4.90;;;;;;;;;;4994233;28;20661;-64
2023/01/04 13:42:01;;;;;;;5.10;4.70;;;;;;;;;;4993924;28;20603;-64
2023/01/04 13:44:47;;;;;;;5.80;5.40;;;;;;;;;;4994023;28;20202;-65
2023/01/04 13:47:14;;;;;;;5.30;4.90;;;;;;;;;;4993891;28;20293;-65
2023/01/04 13:49:40;;;;;;;5.60;5.20;;;;;;;;;;4993886;28;20198;-66
2023/01/04 13:52:20;;;;;;;5.70;5.30;;;;;;;;;;4993581;28;20659;-66
2023/01/04 13:54:46;;;;;;;6.00;5.40;;;;;;;;;;4993946;28;20198;-67
2023/01/04 13:57:16;;;;;;;5.63;5.13;;;;;;;;;;4993628;28;20210;-67
2023/01/04 13:59:42;;;;;;;7.07;6.47;;;;;;;;;;4993787;28;20257;-67
2023/01/04 14:02:14;;;;;;;8.70;7.93;;;;;;;;;;4993653;28;20597;-67
2023/01/04 14:04:42;;;;;;;4.57;4.17;;;;;;;;;;4993720;28;20252;-66
2023/01/04 14:07:08;;;;;;;5.03;3.90;;;;;;;;;;4993249;28;20229;-67
2023/01/04 14:09:36;;;;;;;4.47;4.17;;;;;;;;;;4991423;28;20301;-67
2023/01/04 14:12:07;;;;;;;4.33;4.03;;;;;;;;;;4993052;28;20206;-68
2023/01/04 14:14:48;;;;;;;5.17;4.67;;;;;;;;;;4993379;28;20244;-67
2023/01/04 14:17:22;;;;;;;4.30;4.00;;;;;;;;;;4993515;28;20202;-68
2023/01/04 14:19:52;;;;;;;3.57;3.30;;;;;;;;;;4993321;28;20213;-68
2023/01/04 14:22:34;;;;;;;4.07;3.67;;;;;;;;;;4993441;28;20210;-68
2023/01/04 14:25:01;;;;;;;2.60;2.40;;;;;;;;;;4991055;28;20210;-67
2023/01/04 14:27:35;;;;;;;2.00;1.90;;;;;;;;;;4993047;28;20230;-67
2023/01/04 14:30:13;;;;;;;2.10;1.90;;;;;;;;;;4992759;28;20206;-68
2023/01/04 14:32:39;;;;;;;3.27;1.90;;;;;;;;;;4992761;28;20198;-68
2023/01/04 14:35:11;;;;;;;1.70;1.60;;;;;;;;;;4992854;28;20221;-68
2023/01/04 14:37:37;;;;;;;2.03;1.50;;;;;;;;;;4991081;28;20567;-67
2023/01/04 14:40:12;;;;;;;1.93;1.50;;;;;;;;;;4992094;28;20720;-68
2023/01/04 14:42:38;;;;;;;1.40;1.30;;;;;;;;;;4992523;28;20204;-67
2023/01/04 14:45:11;;;;;;;3.33;1.60;;;;;;;;;;4992741;28;20618;-67
2023/01/04 14:47:37;;;;;;;1.83;1.40;;;;;;;;;;4992543;28;20241;-67
2023/01/04 14:50:03;;;;;;;1.40;1.30;;;;;;;;;;4992529;28;20199;-68
2023/01/04 14:52:31;;;;;;;3.83;1.37;;;;;;;;;;4992790;28;20202;-68
2023/01/04 14:54:58;;;;;;;2.87;1.40;;;;;;;;;;4992772;28;20202;-67
2023/01/04 14:57:24;;;;;;;1.57;1.30;;;;;;;;;;4992979;28;20214;-67
2023/01/04 14:59:50;;;;;;;4.27;1.60;;;;;;;;;;4992832;28;20234;-67
2023/01/04 15:02:16;;;;;;;2.60;1.50;;;;;;;;;;4992628;28;20225;-67
2023/01/04 15:04:42;;;;;;;3.87;1.47;;;;;;;;;;4992437;28;20684;-68
2023/01/04 15:07:28;;;;;;;5.03;1.80;;;;;;;;;;4992409;28;20277;-67
2023/01/04 15:09:55;;;;;;;3.17;1.60;;;;;;;;;;4992571;28;20289;-66
2023/01/04 15:12:21;;;;;;;4.40;1.80;;;;;;;;;;4992440;28;20213;-67
2023/01/04 15:14:47;;;;;;;5.73;1.70;;;;;;;;;;4992467;28;20205;-67
2023/01/04 15:17:13;;;;;;;4.03;1.60;;;;;;;;;;4992373;28;20222;-68
2023/01/04 15:19:39;;;;;;;4.57;1.80;;;;;;;;;;4992365;28;20669;-67
2023/01/04 15:22:05;;;;;;;3.53;1.73;;;;;;;;;;4992378;28;20205;-66
2023/01/04 15:24:31;;;;;;;4.13;1.90;;;;;;;;;;4992368;28;20553;-67
2023/01/04 15:26:58;;;;;;;3.43;1.50;;;;;;;;;;4992176;28;20234;-68
2023/01/04 15:29:25;;;;;;;4.67;1.63;;;;;;;;;;4992466;28;20214;-68
2023/01/04 15:31:51;;;;;;;5.30;2.27;;;;;;;;;;4992256;28;20221;-68
2023/01/04 15:34:17;;;;;;;4.63;1.97;;;;;;;;;;4992268;28;20284;-67
2023/01/04 15:36:43;;;;;;;6.57;2.90;;;;;;;;;;4992258;28;20194;-68
2023/01/04 15:39:11;;;;;;;12.87;5.43;;;;;;;;;;4992018;28;20221;-67